sensor_id;sensor_type;location;lat;lon;timestamp;P1;durP1;ratioP1;P2;durP2;ratioP2
14778;SDS011;7481;53.750;10.570;2023-02-28T00:02:14;6.73;;;2.30;;
14778;SDS011;7481;53.750;10.570;2023-02-28T00:05:04;3.37;;;1.97;;
14778;SDS011;7481;53.750;10.570;2023-02-28T00:07:51;4.93;;;1.97;;
14778;SDS011;7481;53.750;10.570;2023-02-28T00:10:39;4.00;;;1.90;;
14778;SDS011;7481;53.750;10.570;2023-02-28T00:13:26;3.03;;;2.10;;
14778;SDS011;7481;53.750;10.570;2023-02-28T00:16:20;3.60;;;2.07;;
14778;SDS011;7481;53.750;10.570;2023-02-28T00:19:08;3.60;;;2.20;;
14778;SDS011;7481;53.750;10.570;2023-02-28T00:21:56;6.30;;;2.87;;
14778;SDS011;7481;53.750;10.570;2023-02-28T00:24:43;3.80;;;2.43;;
14778;SDS011;7481;53.750;10.570;2023-02-28T00:27:30;4.40;;;2.50;;
14778;SDS011;7481;53.750;10.570;2023-02-28T00:30:19;4.43;;;2.40;;
14778;SDS011;7481;53.750;10.570;2023-02-28T00:33:07;3.00;;;2.70;;
14778;SDS011;7481;53.750;10.570;2023-02-28T00:36:01;5.97;;;3.10;;
14778;SDS011;7481;53.750;10.570;2023-02-28T00:38:49;3.70;;;2.60;;
14778;SDS011;7481;53.750;10.570;2023-02-28T00:41:37;4.23;;;2.70;;
14778;SDS011;7481;53.750;10.570;2023-02-28T00:44:24;4.10;;;2.47;;
14778;SDS011;7481;53.750;10.570;2023-02-28T00:47:11;5.23;;;2.90;;
14778;SDS011;7481;53.750;10.570;2023-02-28T00:49:59;6.23;;;2.77;;
14778;SDS011;7481;53.750;10.570;2023-02-28T00:52:47;4.90;;;2.43;;
14778;SDS011;7481;53.750;10.570;2023-02-28T00:55:34;4.80;;;3.03;;
14778;SDS011;7481;53.750;10.570;2023-02-28T00:58:22;5.53;;;2.90;;
14778;SDS011;7481;53.750;10.570;2023-02-28T01:01:09;5.03;;;2.40;;
14778;SDS011;7481;53.750;10.570;2023-02-28T01:03:57;4.93;;;2.63;;
14778;SDS011;7481;53.750;10.570;2023-02-28T01:06:44;5.27;;;3.00;;
14778;SDS011;7481;53.750;10.570;2023-02-28T01:09:31;4.07;;;2.50;;
14778;SDS011;7481;53.750;10.570;2023-02-28T01:12:19;3.40;;;2.40;;
14778;SDS011;7481;53.750;10.570;2023-02-28T01:15:06;3.00;;;2.70;;
14778;SDS011;7481;53.750;10.570;2023-02-28T01:17:54;10.17;;;2.60;;
14778;SDS011;7481;53.750;10.570;2023-02-28T01:20:41;5.37;;;2.60;;
14778;SDS011;7481;53.750;10.570;2023-02-28T01:23:29;6.30;;;2.60;;
14778;SDS011;7481;53.750;10.570;2023-02-28T01:26:18;4.17;;;2.70;;
14778;SDS011;7481;53.750;10.570;2023-02-28T01:29:05;5.30;;;2.40;;
14778;SDS011;7481;53.750;10.570;2023-02-28T01:31:53;4.73;;;2.60;;
14778;SDS011;7481;53.750;10.570;2023-02-28T01:34:40;5.57;;;2.67;;
14778;SDS011;7481;53.750;10.570;2023-02-28T01:37:27;12.70;;;6.93;;
14778;SDS011;7481;53.750;10.570;2023-02-28T01:40:15;9.40;;;4.60;;
14778;SDS011;7481;53.750;10.570;2023-02-28T01:43:02;7.43;;;4.57;;
14778;SDS011;7481;53.750;10.570;2023-02-28T01:45:50;15.80;;;7.23;;
14778;SDS011;7481;53.750;10.570;2023-02-28T01:48:40;9.60;;;5.03;;
14778;SDS011;7481;53.750;10.570;2023-02-28T01:51:31;9.77;;;5.20;;
14778;SDS011;7481;53.750;10.570;2023-02-28T01:54:22;11.20;;;5.03;;
14778;SDS011;7481;53.750;10.570;2023-02-28T01:57:12;7.10;;;4.57;;
14778;SDS011;7481;53.750;10.570;2023-02-28T02:00:03;7.87;;;4.10;;
14778;SDS011;7481;53.750;10.570;2023-02-28T02:02:54;8.07;;;4.97;;
14778;SDS011;7481;53.750;10.570;2023-02-28T02:05:42;10.73;;;5.60;;
14778;SDS011;7481;53.750;10.570;2023-02-28T02:08:33;9.30;;;4.67;;
14778;SDS011;7481;53.750;10.570;2023-02-28T02:11:21;7.33;;;4.23;;
14778;SDS011;7481;53.750;10.570;2023-02-28T02:14:31;6.40;;;3.63;;
14778;SDS011;7481;53.750;10.570;2023-02-28T02:17:26;8.60;;;3.87;;
14778;SDS011;7481;53.750;10.570;2023-02-28T02:26:25;6.13;;;3.23;;
14778;SDS011;7481;53.750;10.570;2023-02-28T02:35:15;9.40;;;4.27;;
14778;SDS011;7481;53.750;10.570;2023-02-28T02:44:06;7.57;;;4.53;;
14778;SDS011;7481;53.750;10.570;2023-02-28T02:46:55;5.33;;;2.80;;
14778;SDS011;7481;53.750;10.570;2023-02-28T02:49:55;4.63;;;3.37;;
14778;SDS011;7481;53.750;10.570;2023-02-28T02:52:46;5.50;;;2.60;;
14778;SDS011;7481;53.750;10.570;2023-02-28T02:55:37;3.83;;;2.30;;
14778;SDS011;7481;53.750;10.570;2023-02-28T02:58:26;17.70;;;7.60;;
14778;SDS011;7481;53.750;10.570;2023-02-28T03:01:16;25.40;;;9.93;;
14778;SDS011;7481;53.750;10.570;2023-02-28T03:04:16;24.97;;;9.20;;
14778;SDS011;7481;53.750;10.570;2023-02-28T03:07:04;18.73;;;8.27;;
14778;SDS011;7481;53.750;10.570;2023-02-28T03:09:52;19.20;;;7.37;;
14778;SDS011;7481;53.750;10.570;2023-02-28T03:12:41;9.87;;;4.27;;
14778;SDS011;7481;53.750;10.570;2023-02-28T03:15:33;10.00;;;4.63;;
14778;SDS011;7481;53.750;10.570;2023-02-28T03:21:27;5.40;;;3.57;;
14778;SDS011;7481;53.750;10.570;2023-02-28T03:27:06;6.87;;;3.07;;
14778;SDS011;7481;53.750;10.570;2023-02-28T03:30:03;9.77;;;3.77;;
14778;SDS011;7481;53.750;10.570;2023-02-28T03:35:52;6.97;;;3.10;;
14778;SDS011;7481;53.750;10.570;2023-02-28T03:41:54;4.30;;;2.93;;
14778;SDS011;7481;53.750;10.570;2023-02-28T03:44:49;6.07;;;2.97;;
14778;SDS011;7481;53.750;10.570;2023-02-28T03:53:19;6.23;;;2.97;;
14778;SDS011;7481;53.750;10.570;2023-02-28T03:56:11;3.57;;;2.40;;
14778;SDS011;7481;53.750;10.570;2023-02-28T03:59:04;4.73;;;2.70;;
14778;SDS011;7481;53.750;10.570;2023-02-28T04:01:53;5.97;;;2.87;;
14778;SDS011;7481;53.750;10.570;2023-02-28T04:04:41;6.00;;;3.17;;
14778;SDS011;7481;53.750;10.570;2023-02-28T04:07:35;7.03;;;2.90;;
14778;SDS011;7481;53.750;10.570;2023-02-28T04:10:22;5.83;;;3.20;;
14778;SDS011;7481;53.750;10.570;2023-02-28T04:13:10;6.47;;;2.90;;
14778;SDS011;7481;53.750;10.570;2023-02-28T04:15:57;5.33;;;2.90;;
14778;SDS011;7481;53.750;10.570;2023-02-28T04:18:45;8.77;;;3.37;;
14778;SDS011;7481;53.750;10.570;2023-02-28T04:21:34;5.50;;;3.23;;
14778;SDS011;7481;53.750;10.570;2023-02-28T04:24:23;4.07;;;2.70;;
14778;SDS011;7481;53.750;10.570;2023-02-28T04:27:10;4.37;;;2.80;;
14778;SDS011;7481;53.750;10.570;2023-02-28T04:29:58;6.13;;;2.97;;
14778;SDS011;7481;53.750;10.570;2023-02-28T04:32:45;4.53;;;3.00;;
14778;SDS011;7481;53.750;10.570;2023-02-28T04:35:32;5.10;;;2.90;;
14778;SDS011;7481;53.750;10.570;2023-02-28T04:38:20;5.70;;;3.23;;
14778;SDS011;7481;53.750;10.570;2023-02-28T04:41:07;6.40;;;3.47;;
14778;SDS011;7481;53.750;10.570;2023-02-28T04:43:55;8.13;;;3.50;;
14778;SDS011;7481;53.750;10.570;2023-02-28T04:46:42;5.33;;;2.93;;
14778;SDS011;7481;53.750;10.570;2023-02-28T04:49:30;5.00;;;3.20;;
14778;SDS011;7481;53.750;10.570;2023-02-28T04:52:17;6.33;;;3.87;;
14778;SDS011;7481;53.750;10.570;2023-02-28T04:55:05;6.77;;;3.13;;
14778;SDS011;7481;53.750;10.570;2023-02-28T04:57:52;5.43;;;2.97;;
14778;SDS011;7481;53.750;10.570;2023-02-28T05:00:40;4.83;;;3.10;;
14778;SDS011;7481;53.750;10.570;2023-02-28T05:03:27;6.70;;;3.93;;
14778;SDS011;7481;53.750;10.570;2023-02-28T05:06:15;8.93;;;4.00;;
14778;SDS011;7481;53.750;10.570;2023-02-28T05:09:02;6.37;;;3.83;;
14778;SDS011;7481;53.750;10.570;2023-02-28T05:11:50;5.57;;;3.50;;
14778;SDS011;7481;53.750;10.570;2023-02-28T05:14:37;6.23;;;3.80;;
14778;SDS011;7481;53.750;10.570;2023-02-28T05:17:24;5.63;;;3.47;;
14778;SDS011;7481;53.750;10.570;2023-02-28T05:20:12;4.80;;;3.17;;
14778;SDS011;7481;53.750;10.570;2023-02-28T05:23:02;7.83;;;3.27;;
14778;SDS011;7481;53.750;10.570;2023-02-28T05:25:49;4.50;;;2.80;;
14778;SDS011;7481;53.750;10.570;2023-02-28T05:28:38;4.80;;;3.13;;
14778;SDS011;7481;53.750;10.570;2023-02-28T05:31:25;6.90;;;3.50;;
14778;SDS011;7481;53.750;10.570;2023-02-28T05:34:15;6.30;;;3.37;;
14778;SDS011;7481;53.750;10.570;2023-02-28T05:37:02;7.10;;;3.03;;
14778;SDS011;7481;53.750;10.570;2023-02-28T05:39:50;8.87;;;3.20;;
14778;SDS011;7481;53.750;10.570;2023-02-28T05:42:37;5.13;;;3.30;;
14778;SDS011;7481;53.750;10.570;2023-02-28T05:45:25;5.83;;;3.27;;
14778;SDS011;7481;53.750;10.570;2023-02-28T05:48:12;4.30;;;2.73;;
14778;SDS011;7481;53.750;10.570;2023-02-28T05:51:00;4.93;;;2.90;;
14778;SDS011;7481;53.750;10.570;2023-02-28T05:53:47;5.73;;;2.97;;
14778;SDS011;7481;53.750;10.570;2023-02-28T05:56:35;5.57;;;3.13;;
14778;SDS011;7481;53.750;10.570;2023-02-28T05:59:25;8.80;;;3.53;;
14778;SDS011;7481;53.750;10.570;2023-02-28T06:02:13;5.67;;;3.13;;
14778;SDS011;7481;53.750;10.570;2023-02-28T06:05:01;6.40;;;2.70;;
14778;SDS011;7481;53.750;10.570;2023-02-28T06:07:48;4.90;;;2.80;;
14778;SDS011;7481;53.750;10.570;2023-02-28T06:10:36;5.90;;;3.17;;
14778;SDS011;7481;53.750;10.570;2023-02-28T06:13:23;5.03;;;2.83;;
14778;SDS011;7481;53.750;10.570;2023-02-28T06:16:11;5.97;;;3.00;;
14778;SDS011;7481;53.750;10.570;2023-02-28T06:18:59;5.23;;;3.07;;
14778;SDS011;7481;53.750;10.570;2023-02-28T06:21:48;6.93;;;3.30;;
14778;SDS011;7481;53.750;10.570;2023-02-28T06:24:37;4.10;;;2.83;;
14778;SDS011;7481;53.750;10.570;2023-02-28T06:27:24;6.93;;;3.90;;
14778;SDS011;7481;53.750;10.570;2023-02-28T06:30:11;9.43;;;4.93;;
14778;SDS011;7481;53.750;10.570;2023-02-28T06:32:59;32.03;;;16.63;;
14778;SDS011;7481;53.750;10.570;2023-02-28T06:35:47;29.27;;;15.37;;
14778;SDS011;7481;53.750;10.570;2023-02-28T06:38:36;18.70;;;8.83;;
14778;SDS011;7481;53.750;10.570;2023-02-28T06:41:25;9.40;;;5.03;;
14778;SDS011;7481;53.750;10.570;2023-02-28T06:44:17;11.73;;;4.03;;
14778;SDS011;7481;53.750;10.570;2023-02-28T06:47:05;6.97;;;3.77;;
14778;SDS011;7481;53.750;10.570;2023-02-28T06:49:53;6.97;;;4.23;;
14778;SDS011;7481;53.750;10.570;2023-02-28T06:52:40;7.17;;;4.63;;
14778;SDS011;7481;53.750;10.570;2023-02-28T06:55:27;9.90;;;4.63;;
14778;SDS011;7481;53.750;10.570;2023-02-28T06:58:16;6.57;;;4.00;;
14778;SDS011;7481;53.750;10.570;2023-02-28T07:01:07;9.30;;;3.87;;
14778;SDS011;7481;53.750;10.570;2023-02-28T07:03:55;5.97;;;3.63;;
14778;SDS011;7481;53.750;10.570;2023-02-28T07:06:42;6.60;;;3.57;;
14778;SDS011;7481;53.750;10.570;2023-02-28T07:09:29;6.57;;;4.13;;
14778;SDS011;7481;53.750;10.570;2023-02-28T07:12:17;6.43;;;3.43;;
14778;SDS011;7481;53.750;10.570;2023-02-28T07:15:05;6.50;;;4.27;;
14778;SDS011;7481;53.750;10.570;2023-02-28T07:17:52;7.27;;;4.10;;
14778;SDS011;7481;53.750;10.570;2023-02-28T07:20:39;5.77;;;4.00;;
14778;SDS011;7481;53.750;10.570;2023-02-28T07:23:27;6.27;;;3.87;;
14778;SDS011;7481;53.750;10.570;2023-02-28T07:26:15;6.43;;;3.70;;
14778;SDS011;7481;53.750;10.570;2023-02-28T07:29:03;6.40;;;3.50;;
14778;SDS011;7481;53.750;10.570;2023-02-28T07:31:51;6.50;;;3.90;;
14778;SDS011;7481;53.750;10.570;2023-02-28T07:34:39;10.90;;;4.50;;
14778;SDS011;7481;53.750;10.570;2023-02-28T07:37:27;6.53;;;4.60;;
14778;SDS011;7481;53.750;10.570;2023-02-28T07:40:17;6.57;;;4.20;;
14778;SDS011;7481;53.750;10.570;2023-02-28T07:43:05;11.50;;;5.50;;
14778;SDS011;7481;53.750;10.570;2023-02-28T07:45:53;8.73;;;5.43;;
14778;SDS011;7481;53.750;10.570;2023-02-28T07:48:40;8.70;;;5.37;;
14778;SDS011;7481;53.750;10.570;2023-02-28T07:51:28;8.53;;;5.27;;
14778;SDS011;7481;53.750;10.570;2023-02-28T07:54:16;8.57;;;4.70;;
14778;SDS011;7481;53.750;10.570;2023-02-28T07:57:04;6.60;;;4.70;;
14778;SDS011;7481;53.750;10.570;2023-02-28T07:59:51;10.90;;;4.93;;
14778;SDS011;7481;53.750;10.570;2023-02-28T08:02:39;6.27;;;4.00;;
14778;SDS011;7481;53.750;10.570;2023-02-28T08:05:26;7.23;;;3.80;;
14778;SDS011;7481;53.750;10.570;2023-02-28T08:08:14;9.37;;;3.93;;
14778;SDS011;7481;53.750;10.570;2023-02-28T08:11:03;7.30;;;4.30;;
14778;SDS011;7481;53.750;10.570;2023-02-28T08:13:50;7.03;;;3.73;;
14778;SDS011;7481;53.750;10.570;2023-02-28T08:16:38;5.40;;;3.80;;
14778;SDS011;7481;53.750;10.570;2023-02-28T08:19:26;6.37;;;4.00;;
14778;SDS011;7481;53.750;10.570;2023-02-28T08:22:13;6.90;;;4.57;;
14778;SDS011;7481;53.750;10.570;2023-02-28T08:25:01;6.53;;;3.70;;
14778;SDS011;7481;53.750;10.570;2023-02-28T08:27:50;5.93;;;3.80;;
14778;SDS011;7481;53.750;10.570;2023-02-28T08:30:37;7.30;;;3.80;;
14778;SDS011;7481;53.750;10.570;2023-02-28T08:33:27;10.07;;;3.90;;
14778;SDS011;7481;53.750;10.570;2023-02-28T08:36:15;6.90;;;3.57;;
14778;SDS011;7481;53.750;10.570;2023-02-28T08:39:05;20.73;;;4.77;;
14778;SDS011;7481;53.750;10.570;2023-02-28T08:41:53;4.10;;;3.60;;
14778;SDS011;7481;53.750;10.570;2023-02-28T08:44:52;8.47;;;3.47;;
14778;SDS011;7481;53.750;10.570;2023-02-28T08:47:40;7.20;;;3.40;;
14778;SDS011;7481;53.750;10.570;2023-02-28T08:50:27;5.60;;;3.63;;
14778;SDS011;7481;53.750;10.570;2023-02-28T08:53:15;7.00;;;3.90;;
14778;SDS011;7481;53.750;10.570;2023-02-28T08:56:04;8.80;;;4.60;;
14778;SDS011;7481;53.750;10.570;2023-02-28T08:58:53;11.10;;;6.10;;
14778;SDS011;7481;53.750;10.570;2023-02-28T09:01:41;12.77;;;7.33;;
14778;SDS011;7481;53.750;10.570;2023-02-28T09:04:30;13.67;;;8.17;;
14778;SDS011;7481;53.750;10.570;2023-02-28T09:07:17;14.10;;;7.03;;
14778;SDS011;7481;53.750;10.570;2023-02-28T09:10:05;10.47;;;7.00;;
14778;SDS011;7481;53.750;10.570;2023-02-28T09:12:52;10.93;;;5.87;;
14778;SDS011;7481;53.750;10.570;2023-02-28T09:15:40;8.33;;;5.20;;
14778;SDS011;7481;53.750;10.570;2023-02-28T09:18:27;8.23;;;4.70;;
14778;SDS011;7481;53.750;10.570;2023-02-28T09:21:16;7.13;;;3.93;;
14778;SDS011;7481;53.750;10.570;2023-02-28T09:24:04;7.07;;;3.57;;
14778;SDS011;7481;53.750;10.570;2023-02-28T09:26:52;4.60;;;3.30;;
14778;SDS011;7481;53.750;10.570;2023-02-28T09:29:49;5.23;;;3.13;;
14778;SDS011;7481;53.750;10.570;2023-02-28T09:32:37;6.00;;;3.57;;
14778;SDS011;7481;53.750;10.570;2023-02-28T09:35:24;4.60;;;2.60;;
14778;SDS011;7481;53.750;10.570;2023-02-28T09:38:13;6.83;;;2.20;;
14778;SDS011;7481;53.750;10.570;2023-02-28T09:41:08;3.80;;;1.97;;
14778;SDS011;7481;53.750;10.570;2023-02-28T09:43:58;3.42;;;2.15;;
14778;SDS011;7481;53.750;10.570;2023-02-28T09:46:48;3.50;;;2.10;;
14778;SDS011;7481;53.750;10.570;2023-02-28T09:49:40;2.70;;;2.30;;
14778;SDS011;7481;53.750;10.570;2023-02-28T09:52:30;2.10;;;1.88;;
14778;SDS011;7481;53.750;10.570;2023-02-28T09:58:08;3.55;;;2.00;;
14778;SDS011;7481;53.750;10.570;2023-02-28T10:01:03;4.53;;;2.13;;
14778;SDS011;7481;53.750;10.570;2023-02-28T10:03:58;3.15;;;1.83;;
14778;SDS011;7481;53.750;10.570;2023-02-28T10:06:49;2.80;;;2.10;;
14778;SDS011;7481;53.750;10.570;2023-02-28T10:09:37;4.07;;;1.95;;
14778;SDS011;7481;53.750;10.570;2023-02-28T10:12:24;3.53;;;2.30;;
14778;SDS011;7481;53.750;10.570;2023-02-28T10:15:16;3.03;;;2.30;;
14778;SDS011;7481;53.750;10.570;2023-02-28T10:18:04;5.28;;;2.10;;
14778;SDS011;7481;53.750;10.570;2023-02-28T10:20:55;4.78;;;2.47;;
14778;SDS011;7481;53.750;10.570;2023-02-28T10:23:43;6.20;;;2.70;;
14778;SDS011;7481;53.750;10.570;2023-02-28T10:26:31;4.30;;;2.45;;
14778;SDS011;7481;53.750;10.570;2023-02-28T10:29:19;4.75;;;2.50;;
14778;SDS011;7481;53.750;10.570;2023-02-28T10:32:06;3.60;;;2.67;;
14778;SDS011;7481;53.750;10.570;2023-02-28T10:35:40;3.92;;;2.53;;
14778;SDS011;7481;53.750;10.570;2023-02-28T10:38:02;4.60;;;2.67;;
14778;SDS011;7481;53.750;10.570;2023-02-28T10:41:07;6.68;;;2.80;;
14778;SDS011;7481;53.750;10.570;2023-02-28T10:47:01;5.68;;;3.30;;
14778;SDS011;7481;53.750;10.570;2023-02-28T10:49:51;4.97;;;2.90;;
14778;SDS011;7481;53.750;10.570;2023-02-28T10:52:39;3.38;;;2.40;;
14778;SDS011;7481;53.750;10.570;2023-02-28T10:55:27;4.38;;;2.90;;
14778;SDS011;7481;53.750;10.570;2023-02-28T10:58:21;3.70;;;2.60;;
14778;SDS011;7481;53.750;10.570;2023-02-28T11:01:13;3.65;;;2.90;;
14778;SDS011;7481;53.750;10.570;2023-02-28T11:04:01;3.80;;;3.05;;
14778;SDS011;7481;53.750;10.570;2023-02-28T11:09:46;3.25;;;2.70;;
14778;SDS011;7481;53.750;10.570;2023-02-28T11:12:37;4.38;;;2.70;;
14778;SDS011;7481;53.750;10.570;2023-02-28T11:15:36;3.95;;;2.55;;
14778;SDS011;7481;53.750;10.570;2023-02-28T11:18:41;4.18;;;2.80;;
14778;SDS011;7481;53.750;10.570;2023-02-28T11:21:30;5.78;;;2.85;;
14778;SDS011;7481;53.750;10.570;2023-02-28T11:24:24;4.65;;;2.88;;
14778;SDS011;7481;53.750;10.570;2023-02-28T11:30:26;3.60;;;2.50;;
14778;SDS011;7481;53.750;10.570;2023-02-28T11:39:10;3.78;;;2.63;;
14778;SDS011;7481;53.750;10.570;2023-02-28T11:45:03;3.97;;;2.30;;
14778;SDS011;7481;53.750;10.570;2023-02-28T11:50:50;6.15;;;4.45;;
14778;SDS011;7481;53.750;10.570;2023-02-28T12:02:20;2.15;;;1.95;;
14778;SDS011;7481;53.750;10.570;2023-02-28T12:08:22;3.83;;;1.92;;
14778;SDS011;7481;53.750;10.570;2023-02-28T12:14:06;3.67;;;2.23;;
14778;SDS011;7481;53.750;10.570;2023-02-28T12:26:10;5.47;;;2.30;;
14778;SDS011;7481;53.750;10.570;2023-02-28T12:29:02;4.17;;;2.27;;
14778;SDS011;7481;53.750;10.570;2023-02-28T12:31:55;3.70;;;2.37;;
14778;SDS011;7481;53.750;10.570;2023-02-28T12:37:33;3.47;;;2.33;;
14778;SDS011;7481;53.750;10.570;2023-02-28T12:40:40;2.80;;;2.10;;
14778;SDS011;7481;53.750;10.570;2023-02-28T12:43:33;4.47;;;2.50;;
14778;SDS011;7481;53.750;10.570;2023-02-28T12:46:24;3.47;;;2.40;;
14778;SDS011;7481;53.750;10.570;2023-02-28T12:49:23;5.97;;;4.67;;
14778;SDS011;7481;53.750;10.570;2023-02-28T12:52:13;2.77;;;1.90;;
14778;SDS011;7481;53.750;10.570;2023-02-28T12:55:14;2.37;;;2.00;;
14778;SDS011;7481;53.750;10.570;2023-02-28T13:09:53;2.53;;;1.90;;
14778;SDS011;7481;53.750;10.570;2023-02-28T13:12:52;2.47;;;2.03;;
14778;SDS011;7481;53.750;10.570;2023-02-28T13:15:41;3.20;;;2.20;;
14778;SDS011;7481;53.750;10.570;2023-02-28T13:18:44;4.00;;;2.17;;
14778;SDS011;7481;53.750;10.570;2023-02-28T13:21:32;3.17;;;2.27;;
14778;SDS011;7481;53.750;10.570;2023-02-28T13:24:39;3.77;;;1.90;;
14778;SDS011;7481;53.750;10.570;2023-02-28T13:27:33;5.53;;;2.20;;
14778;SDS011;7481;53.750;10.570;2023-02-28T13:45:21;2.83;;;1.90;;
14778;SDS011;7481;53.750;10.570;2023-02-28T13:48:17;3.00;;;2.13;;
14778;SDS011;7481;53.750;10.570;2023-02-28T13:54:17;3.10;;;2.07;;
14778;SDS011;7481;53.750;10.570;2023-02-28T14:06:17;3.43;;;2.03;;
14778;SDS011;7481;53.750;10.570;2023-02-28T14:15:28;3.57;;;2.50;;
14778;SDS011;7481;53.750;10.570;2023-02-28T14:29:47;2.73;;;2.03;;
14778;SDS011;7481;53.750;10.570;2023-02-28T14:32:54;4.30;;;2.07;;
14778;SDS011;7481;53.750;10.570;2023-02-28T14:35:50;4.90;;;2.10;;
14778;SDS011;7481;53.750;10.570;2023-02-28T14:41:39;4.25;;;2.33;;
14778;SDS011;7481;53.750;10.570;2023-02-28T14:44:27;4.38;;;2.38;;
14778;SDS011;7481;53.750;10.570;2023-02-28T14:47:14;4.47;;;2.20;;
14778;SDS011;7481;53.750;10.570;2023-02-28T14:50:03;2.43;;;2.00;;
14778;SDS011;7481;53.750;10.570;2023-02-28T14:52:54;5.23;;;2.17;;
14778;SDS011;7481;53.750;10.570;2023-02-28T14:55:43;3.10;;;1.70;;
14778;SDS011;7481;53.750;10.570;2023-02-28T14:58:33;2.80;;;2.00;;
14778;SDS011;7481;53.750;10.570;2023-02-28T15:01:21;4.63;;;2.07;;
14778;SDS011;7481;53.750;10.570;2023-02-28T15:04:12;4.00;;;1.90;;
14778;SDS011;7481;53.750;10.570;2023-02-28T15:07:14;2.60;;;2.17;;
14778;SDS011;7481;53.750;10.570;2023-02-28T15:13:00;3.90;;;2.30;;
14778;SDS011;7481;53.750;10.570;2023-02-28T15:18:54;4.30;;;2.23;;
14778;SDS011;7481;53.750;10.570;2023-02-28T15:21:44;3.17;;;2.13;;
14778;SDS011;7481;53.750;10.570;2023-02-28T15:24:40;3.57;;;2.03;;
14778;SDS011;7481;53.750;10.570;2023-02-28T15:27:31;3.47;;;2.13;;
14778;SDS011;7481;53.750;10.570;2023-02-28T15:30:20;5.70;;;2.27;;
14778;SDS011;7481;53.750;10.570;2023-02-28T15:36:04;2.97;;;2.20;;
14778;SDS011;7481;53.750;10.570;2023-02-28T15:38:52;3.70;;;1.97;;
14778;SDS011;7481;53.750;10.570;2023-02-28T15:41:41;5.33;;;2.30;;
14778;SDS011;7481;53.750;10.570;2023-02-28T15:44:30;3.70;;;2.40;;
14778;SDS011;7481;53.750;10.570;2023-02-28T15:47:24;5.17;;;2.57;;
14778;SDS011;7481;53.750;10.570;2023-02-28T15:50:12;7.33;;;2.40;;
14778;SDS011;7481;53.750;10.570;2023-02-28T15:53:00;3.40;;;2.23;;
14778;SDS011;7481;53.750;10.570;2023-02-28T15:56:02;3.37;;;2.10;;
14778;SDS011;7481;53.750;10.570;2023-02-28T15:58:54;3.57;;;2.10;;
14778;SDS011;7481;53.750;10.570;2023-02-28T16:01:42;9.77;;;4.10;;
14778;SDS011;7481;53.750;10.570;2023-02-28T16:04:30;9.27;;;3.90;;
14778;SDS011;7481;53.750;10.570;2023-02-28T16:07:18;4.50;;;2.50;;
14778;SDS011;7481;53.750;10.570;2023-02-28T16:10:06;3.57;;;2.50;;
14778;SDS011;7481;53.750;10.570;2023-02-28T16:12:54;3.20;;;2.00;;
14778;SDS011;7481;53.750;10.570;2023-02-28T16:15:42;4.40;;;2.20;;
14778;SDS011;7481;53.750;10.570;2023-02-28T16:18:30;3.83;;;2.00;;
14778;SDS011;7481;53.750;10.570;2023-02-28T16:21:17;3.87;;;2.30;;
14778;SDS011;7481;53.750;10.570;2023-02-28T16:24:05;3.57;;;2.23;;
14778;SDS011;7481;53.750;10.570;2023-02-28T16:26:53;7.00;;;2.53;;
14778;SDS011;7481;53.750;10.570;2023-02-28T16:29:42;4.70;;;2.40;;
14778;SDS011;7481;53.750;10.570;2023-02-28T16:32:31;9.60;;;2.70;;
14778;SDS011;7481;53.750;10.570;2023-02-28T16:35:22;5.27;;;2.23;;
14778;SDS011;7481;53.750;10.570;2023-02-28T16:38:10;4.87;;;2.33;;
14778;SDS011;7481;53.750;10.570;2023-02-28T16:40:58;4.23;;;2.90;;
14778;SDS011;7481;53.750;10.570;2023-02-28T16:43:47;5.57;;;3.30;;
14778;SDS011;7481;53.750;10.570;2023-02-28T16:46:35;6.03;;;2.90;;
14778;SDS011;7481;53.750;10.570;2023-02-28T16:49:22;9.47;;;3.20;;
14778;SDS011;7481;53.750;10.570;2023-02-28T16:52:10;5.67;;;3.33;;
14778;SDS011;7481;53.750;10.570;2023-02-28T16:55:00;5.93;;;2.40;;
14778;SDS011;7481;53.750;10.570;2023-02-28T16:57:50;4.83;;;2.43;;
14778;SDS011;7481;53.750;10.570;2023-02-28T17:00:38;5.53;;;2.30;;
14778;SDS011;7481;53.750;10.570;2023-02-28T17:03:26;2.77;;;2.43;;
14778;SDS011;7481;53.750;10.570;2023-02-28T17:06:20;3.53;;;2.47;;
14778;SDS011;7481;53.750;10.570;2023-02-28T17:09:13;4.10;;;3.07;;
14778;SDS011;7481;53.750;10.570;2023-02-28T17:12:01;5.70;;;3.20;;
14778;SDS011;7481;53.750;10.570;2023-02-28T17:14:49;4.27;;;2.43;;
14778;SDS011;7481;53.750;10.570;2023-02-28T17:17:36;8.50;;;2.70;;
14778;SDS011;7481;53.750;10.570;2023-02-28T17:20:23;4.13;;;2.37;;
14778;SDS011;7481;53.750;10.570;2023-02-28T17:23:12;2.83;;;2.07;;
14778;SDS011;7481;53.750;10.570;2023-02-28T17:26:00;4.47;;;2.10;;
14778;SDS011;7481;53.750;10.570;2023-02-28T17:28:48;2.83;;;1.80;;
14778;SDS011;7481;53.750;10.570;2023-02-28T17:31:37;6.17;;;2.30;;
14778;SDS011;7481;53.750;10.570;2023-02-28T17:34:26;5.87;;;2.63;;
14778;SDS011;7481;53.750;10.570;2023-02-28T17:37:14;3.53;;;2.03;;
14778;SDS011;7481;53.750;10.570;2023-02-28T17:40:02;3.30;;;2.43;;
14778;SDS011;7481;53.750;10.570;2023-02-28T17:42:49;4.47;;;2.67;;
14778;SDS011;7481;53.750;10.570;2023-02-28T17:45:38;5.83;;;3.00;;
14778;SDS011;7481;53.750;10.570;2023-02-28T17:48:26;7.93;;;3.53;;
14778;SDS011;7481;53.750;10.570;2023-02-28T17:51:14;6.57;;;3.03;;
14778;SDS011;7481;53.750;10.570;2023-02-28T17:54:01;5.13;;;2.97;;
14778;SDS011;7481;53.750;10.570;2023-02-28T17:56:49;7.53;;;2.50;;
14778;SDS011;7481;53.750;10.570;2023-02-28T17:59:36;4.07;;;2.50;;
14778;SDS011;7481;53.750;10.570;2023-02-28T18:02:23;5.10;;;2.60;;
14778;SDS011;7481;53.750;10.570;2023-02-28T18:05:12;5.60;;;2.30;;
14778;SDS011;7481;53.750;10.570;2023-02-28T18:08:00;3.50;;;2.33;;
14778;SDS011;7481;53.750;10.570;2023-02-28T18:10:47;2.83;;;2.10;;
14778;SDS011;7481;53.750;10.570;2023-02-28T18:13:35;2.83;;;2.13;;
14778;SDS011;7481;53.750;10.570;2023-02-28T18:16:22;4.23;;;2.30;;
14778;SDS011;7481;53.750;10.570;2023-02-28T18:19:10;2.67;;;2.10;;
14778;SDS011;7481;53.750;10.570;2023-02-28T18:22:01;2.90;;;2.27;;
14778;SDS011;7481;53.750;10.570;2023-02-28T18:24:48;4.33;;;2.80;;
14778;SDS011;7481;53.750;10.570;2023-02-28T18:27:35;4.50;;;2.37;;
14778;SDS011;7481;53.750;10.570;2023-02-28T18:30:24;3.50;;;2.00;;
14778;SDS011;7481;53.750;10.570;2023-02-28T18:33:12;2.80;;;2.13;;
14778;SDS011;7481;53.750;10.570;2023-02-28T18:35:59;5.50;;;2.67;;
14778;SDS011;7481;53.750;10.570;2023-02-28T18:38:48;4.07;;;2.50;;
14778;SDS011;7481;53.750;10.570;2023-02-28T18:41:36;4.87;;;2.80;;
14778;SDS011;7481;53.750;10.570;2023-02-28T18:44:23;4.70;;;2.97;;
14778;SDS011;7481;53.750;10.570;2023-02-28T18:47:11;4.43;;;2.80;;
14778;SDS011;7481;53.750;10.570;2023-02-28T18:49:58;6.47;;;2.63;;
14778;SDS011;7481;53.750;10.570;2023-02-28T18:52:50;5.53;;;3.63;;
14778;SDS011;7481;53.750;10.570;2023-02-28T18:55:37;6.33;;;3.73;;
14778;SDS011;7481;53.750;10.570;2023-02-28T18:58:25;7.10;;;4.07;;
14778;SDS011;7481;53.750;10.570;2023-02-28T19:01:14;5.60;;;4.10;;
14778;SDS011;7481;53.750;10.570;2023-02-28T19:04:02;9.60;;;3.40;;
14778;SDS011;7481;53.750;10.570;2023-02-28T19:06:50;6.93;;;5.10;;
14778;SDS011;7481;53.750;10.570;2023-02-28T19:09:38;13.90;;;8.73;;
14778;SDS011;7481;53.750;10.570;2023-02-28T19:12:25;20.00;;;11.63;;
14778;SDS011;7481;53.750;10.570;2023-02-28T19:15:12;17.83;;;9.70;;
14778;SDS011;7481;53.750;10.570;2023-02-28T19:18:00;12.47;;;8.50;;
14778;SDS011;7481;53.750;10.570;2023-02-28T19:20:47;14.30;;;8.43;;
14778;SDS011;7481;53.750;10.570;2023-02-28T19:23:35;14.73;;;8.47;;
14778;SDS011;7481;53.750;10.570;2023-02-28T19:26:23;13.30;;;7.53;;
14778;SDS011;7481;53.750;10.570;2023-02-28T19:29:11;7.23;;;4.77;;
14778;SDS011;7481;53.750;10.570;2023-02-28T19:31:59;7.20;;;4.73;;
14778;SDS011;7481;53.750;10.570;2023-02-28T19:34:47;6.57;;;4.23;;